Time;durP1;ratioP1;P1;durP2;ratioP2;P2;SDS_P1;SDS_P2;PMS_P1;PMS_P2;Temp;Humidity;BMP_temperature;BMP_pressure;BME280_temperature;BME280_humidity;BME280_pressure;Samples;Min_cycle;Max_cycle;Signal;HPM_P1;HPM_P2
2023/03/09 00:01:42;;;;;;;36.92;32.88;;;4.30;99.90;;;;;;5110131;27;20529;-46
2023/03/09 00:04:13;;;;;;;40.63;34.20;;;4.30;99.90;;;;;;5121498;27;20183;-43
2023/03/09 00:06:39;;;;;;;37.95;33.30;;;4.30;99.90;;;;;;5118404;27;20213;-42
2023/03/09 00:09:05;;;;;;;37.17;33.10;;;4.30;99.90;;;;;;5129419;27;20179;-42
2023/03/09 00:11:31;;;;;;;36.00;32.20;;;4.30;99.90;;;;;;5120982;27;20190;-46
2023/03/09 00:13:57;;;;;;;35.83;32.00;;;4.30;99.90;;;;;;5121515;27;20992;-45
2023/03/09 00:16:26;;;;;;;35.70;31.93;;;4.30;99.90;;;;;;5127625;27;20716;-47
2023/03/09 00:18:53;;;;;;;38.08;32.08;;;4.40;99.90;;;;;;5126611;27;20235;-46
2023/03/09 00:21:40;;;;;;;36.83;32.83;;;4.40;99.90;;;;;;5109496;28;20176;-42
2023/03/09 00:24:12;;;;;;;36.03;32.22;;;4.40;99.90;;;;;;5115752;28;20684;-42
2023/03/09 00:26:41;;;;;;;36.65;32.03;;;4.40;99.90;;;;;;5126204;28;20202;-45
2023/03/09 00:29:10;;;;;;;37.92;32.25;;;4.40;99.90;;;;;;5127624;28;20239;-44
2023/03/09 00:31:36;;;;;;;35.90;31.92;;;4.40;99.90;;;;;;5128441;28;20244;-44
2023/03/09 00:34:02;;;;;;;34.70;31.15;;;4.40;99.90;;;;;;5127495;28;20239;-43
2023/03/09 00:36:28;;;;;;;35.63;31.63;;;4.40;99.90;;;;;;5128435;28;20254;-44
2023/03/09 00:38:55;;;;;;;39.60;33.60;;;4.40;99.90;;;;;;5121237;28;21096;-43
2023/03/09 00:41:23;;;;;;;37.00;32.50;;;4.50;99.90;;;;;;5117066;28;20178;-45
2023/03/09 00:43:49;;;;;;;35.10;31.42;;;4.40;99.90;;;;;;5128143;28;20207;-45
2023/03/09 00:46:16;;;;;;;34.40;30.73;;;4.40;99.90;;;;;;5118374;28;20191;-44
2023/03/09 00:48:42;;;;;;;36.65;30.85;;;4.40;99.90;;;;;;5112986;28;20261;-42
2023/03/09 00:51:08;;;;;;;33.20;29.70;;;4.40;99.90;;;;;;5122324;28;20930;-46
2023/03/09 00:53:35;;;;;;;34.13;30.45;;;4.40;99.90;;;;;;5128994;28;20835;-45
2023/03/09 00:56:06;;;;;;;34.45;30.83;;;4.50;99.90;;;;;;5112977;28;20176;-44
2023/03/09 00:58:32;;;;;;;33.67;30.13;;;4.40;99.90;;;;;;5120040;28;20195;-42
2023/03/09 01:00:58;;;;;;;33.93;29.37;;;4.50;99.90;;;;;;5093302;28;20196;-44
2023/03/09 01:03:23;;;;;;;32.23;28.87;;;4.40;99.90;;;;;;5122477;28;20264;-41
2023/03/09 01:05:50;;;;;;;34.73;30.80;;;4.50;99.90;;;;;;5118257;28;20523;-43
2023/03/09 01:08:15;;;;;;;34.25;29.75;;;4.50;99.90;;;;;;5117162;27;20183;-43
2023/03/09 01:10:42;;;;;;;33.57;30.07;;;4.50;99.90;;;;;;5131840;27;20175;-42
2023/03/09 01:13:09;;;;;;;34.00;30.33;;;4.50;99.90;;;;;;5132298;27;20191;-45
2023/03/09 01:15:35;;;;;;;32.83;29.45;;;4.50;99.90;;;;;;5122971;27;20195;-43
2023/03/09 01:18:01;;;;;;;35.75;31.95;;;4.60;99.90;;;;;;5124708;27;20185;-44
2023/03/09 01:20:27;;;;;;;33.63;30.03;;;4.50;99.90;;;;;;5104725;27;20187;-42
2023/03/09 01:22:52;;;;;;;33.00;29.50;;;4.50;99.90;;;;;;5125977;27;20232;-42
2023/03/09 01:25:18;;;;;;;34.23;30.60;;;4.50;99.90;;;;;;5112987;28;20176;-46
2023/03/09 01:27:44;;;;;;;31.40;28.10;;;4.60;99.90;;;;;;5128555;27;20954;-42
2023/03/09 01:30:11;;;;;;;32.70;29.30;;;4.50;99.90;;;;;;5114030;27;20194;-42
2023/03/09 01:32:37;;;;;;;34.80;31.00;;;4.60;99.90;;;;;;5118242;27;20195;-42
2023/03/09 01:35:03;;;;;;;33.17;29.33;;;4.50;99.90;;;;;;5130495;27;20213;-42
2023/03/09 01:37:29;;;;;;;35.95;30.30;;;4.50;99.90;;;;;;5118074;27;20197;-46
2023/03/09 01:39:55;;;;;;;32.83;29.37;;;4.60;99.90;;;;;;5111806;27;20266;-43
2023/03/09 01:42:20;;;;;;;32.83;28.53;;;4.60;99.90;;;;;;5112973;27;20207;-44
2023/03/09 01:45:18;;;;;;;32.87;29.40;;;4.60;99.90;;;;;;5113410;27;20275;-44
2023/03/09 01:47:44;;;;;;;35.50;30.45;;;4.60;99.90;;;;;;5115688;27;20643;-42
2023/03/09 01:50:10;;;;;;;34.13;30.15;;;4.50;99.90;;;;;;5125901;27;20185;-43
2023/03/09 01:52:37;;;;;;;35.33;31.55;;;4.50;99.90;;;;;;5123338;27;20191;-43
2023/03/09 01:55:13;;;;;;;32.15;28.70;;;4.50;99.90;;;;;;5113270;27;21026;-41
2023/03/09 01:57:53;;;;;;;34.88;28.83;;;4.50;99.90;;;;;;5126800;27;20636;-41
2023/03/09 02:00:21;;;;;;;32.90;28.70;;;4.50;99.90;;;;;;5102792;28;20187;-45
2023/03/09 02:03:00;;;;;;;34.03;29.42;;;4.40;99.90;;;;;;5126955;27;20724;-42
2023/03/09 02:05:57;;;;;;;33.40;29.38;;;4.40;99.90;;;;;;5126138;27;20885;-45
2023/03/09 02:08:25;;;;;;;36.28;29.83;;;4.50;99.90;;;;;;5129362;27;20255;-44
2023/03/09 02:10:56;;;;;;;34.75;30.10;;;4.50;99.90;;;;;;5125428;27;20258;-41
2023/03/09 02:13:27;;;;;;;33.88;30.10;;;4.50;99.90;;;;;;5121495;27;20187;-41
2023/03/09 02:15:53;;;;;;;36.20;30.35;;;4.50;99.90;;;;;;5125445;27;20213;-41
2023/03/09 02:18:19;;;;;;;33.73;29.17;;;4.50;99.90;;;;;;5112423;27;20183;-43
2023/03/09 02:21:27;;;;;;;34.60;29.10;;;4.50;99.90;;;;;;5122213;27;20179;-43
2023/03/09 02:23:52;;;;;;;35.58;29.17;;;4.50;99.90;;;;;;5127818;27;20318;-48
2023/03/09 02:26:33;;;;;;;33.37;29.60;;;4.50;99.90;;;;;;5129459;27;20563;-44
2023/03/09 02:28:59;;;;;;;37.67;30.08;;;4.50;99.90;;;;;;5132204;27;20274;-45
2023/03/09 02:31:25;;;;;;;33.93;29.97;;;4.40;99.90;;;;;;5132001;27;20258;-47
2023/03/09 02:33:50;;;;;;;37.10;30.70;;;4.50;99.90;;;;;;5129501;27;20194;-46
2023/03/09 02:36:16;;;;;;;35.70;29.93;;;4.50;99.90;;;;;;5111685;28;20230;-43
2023/03/09 02:38:41;;;;;;;36.93;28.97;;;4.50;99.90;;;;;;5123070;27;20187;-46
2023/03/09 02:41:10;;;;;;;35.67;28.97;;;4.50;99.90;;;;;;5131821;27;20176;-44
2023/03/09 02:43:42;;;;;;;33.65;28.50;;;4.60;99.90;;;;;;5120960;27;20561;-44
2023/03/09 02:46:08;;;;;;;36.55;28.95;;;4.60;99.90;;;;;;5114674;27;20299;-43
2023/03/09 02:48:34;;;;;;;34.67;28.80;;;4.60;99.90;;;;;;5124880;27;20258;-43
2023/03/09 02:50:59;;;;;;;33.33;28.73;;;4.60;99.90;;;;;;5111080;27;20266;-42
2023/03/09 02:53:25;;;;;;;39.57;29.60;;;4.60;99.90;;;;;;5112720;27;20186;-46
2023/03/09 02:55:50;;;;;;;33.53;28.30;;;4.60;99.90;;;;;;5110423;27;20263;-46
2023/03/09 02:58:16;;;;;;;33.80;28.80;;;4.60;99.90;;;;;;5112101;27;20209;-44
2023/03/09 03:00:41;;;;;;;35.13;29.60;;;4.50;99.90;;;;;;5110710;28;20184;-45
2023/03/09 03:03:07;;;;;;;35.60;30.60;;;4.50;99.90;;;;;;5111625;27;20283;-42
2023/03/09 03:05:33;;;;;;;38.08;30.35;;;4.60;99.90;;;;;;5114861;27;20774;-46
2023/03/09 03:07:59;;;;;;;34.37;29.73;;;4.60;99.90;;;;;;5115430;27;20183;-45
2023/03/09 03:10:24;;;;;;;35.50;30.07;;;4.60;99.90;;;;;;5115723;27;20175;-40
2023/03/09 03:12:50;;;;;;;35.20;29.87;;;4.70;99.90;;;;;;5114965;27;20271;-43
2023/03/09 03:15:15;;;;;;;36.40;29.70;;;4.70;99.90;;;;;;5118931;27;20712;-44
2023/03/09 03:17:41;;;;;;;35.03;28.93;;;4.70;99.90;;;;;;5122070;27;20192;-44
2023/03/09 03:20:12;;;;;;;35.90;29.70;;;4.80;99.90;;;;;;5111946;27;20179;-43
2023/03/09 03:22:38;;;;;;;31.40;28.00;;;4.80;99.90;;;;;;5110983;27;20219;-45
2023/03/09 03:25:05;;;;;;;35.08;29.20;;;4.80;99.90;;;;;;5111450;27;20175;-44
2023/03/09 03:27:32;;;;;;;34.38;28.65;;;4.70;99.90;;;;;;5123079;27;20194;-44
2023/03/09 03:29:58;;;;;;;32.20;28.65;;;4.70;99.90;;;;;;5111708;27;20172;-43
2023/03/09 03:32:24;;;;;;;32.95;28.35;;;4.80;99.90;;;;;;5111486;28;20183;-45
2023/03/09 03:34:50;;;;;;;34.93;28.40;;;4.80;99.90;;;;;;5122920;27;20235;-42
2023/03/09 03:37:15;;;;;;;31.23;27.73;;;4.80;99.90;;;;;;5123253;27;20441;-43
2023/03/09 03:39:41;;;;;;;35.10;28.50;;;4.80;99.90;;;;;;5111121;27;20238;-45
2023/03/09 03:42:06;;;;;;;34.37;30.07;;;4.80;99.90;;;;;;5110573;27;20617;-44
2023/03/09 03:44:32;;;;;;;35.83;30.37;;;4.80;99.90;;;;;;5110216;27;20172;-44
2023/03/09 03:46:58;;;;;;;34.33;29.10;;;4.80;99.90;;;;;;5124950;27;20215;-44
2023/03/09 03:49:23;;;;;;;39.07;29.40;;;4.80;99.90;;;;;;5114336;27;20178;-44
2023/03/09 03:51:49;;;;;;;33.70;30.10;;;4.80;99.90;;;;;;5130581;27;20221;-41
2023/03/09 03:54:14;;;;;;;34.87;29.80;;;4.80;99.90;;;;;;5122557;27;20159;-43
2023/03/09 03:56:40;;;;;;;37.17;31.40;;;4.80;99.90;;;;;;5109966;28;20248;-44
2023/03/09 03:59:06;;;;;;;38.50;30.90;;;4.80;99.90;;;;;;5116875;27;20221;-43
2023/03/09 04:01:32;;;;;;;38.55;30.15;;;4.80;99.90;;;;;;5118597;27;20194;-42
2023/03/09 04:03:57;;;;;;;35.93;31.10;;;4.80;99.90;;;;;;5127280;27;20203;-42
2023/03/09 04:06:23;;;;;;;34.00;30.30;;;4.90;99.90;;;;;;5129267;27;20226;-43
2023/03/09 04:08:49;;;;;;;39.40;32.20;;;4.90;99.90;;;;;;5121642;27;20282;-45
2023/03/09 04:11:14;;;;;;;38.63;32.17;;;4.90;99.90;;;;;;5109816;28;20183;-45
2023/03/09 04:13:40;;;;;;;35.30;31.40;;;4.90;99.90;;;;;;5115045;28;20193;-49
2023/03/09 04:16:06;;;;;;;35.07;31.20;;;4.90;99.90;;;;;;5129533;27;20902;-45
2023/03/09 04:18:31;;;;;;;38.30;32.60;;;4.90;99.90;;;;;;5127934;27;20187;-44
2023/03/09 04:20:57;;;;;;;34.73;30.97;;;4.80;99.90;;;;;;5092351;28;20425;-47
2023/03/09 04:23:24;;;;;;;39.50;32.00;;;4.90;99.90;;;;;;5109808;28;20581;-44
2023/03/09 04:25:58;;;;;;;38.17;30.98;;;4.80;99.90;;;;;;5119465;28;20432;-44
2023/03/09 04:28:24;;;;;;;35.53;30.95;;;4.80;99.90;;;;;;5113493;28;20207;-45
2023/03/09 04:30:51;;;;;;;36.67;31.27;;;4.80;99.90;;;;;;5126882;28;20231;-49
2023/03/09 04:33:17;;;;;;;38.53;31.70;;;4.80;99.90;;;;;;5121933;28;20193;-46
2023/03/09 04:35:43;;;;;;;42.87;33.70;;;4.70;99.90;;;;;;5121471;28;20183;-43
2023/03/09 04:38:10;;;;;;;37.47;30.23;;;4.70;99.90;;;;;;5126056;28;20433;-45
2023/03/09 04:40:35;;;;;;;41.92;33.25;;;4.80;99.90;;;;;;5117235;28;20420;-43
2023/03/09 04:43:02;;;;;;;37.40;32.80;;;4.80;99.90;;;;;;5117166;28;20218;-46
2023/03/09 04:45:27;;;;;;;37.33;31.45;;;4.70;99.90;;;;;;5095576;28;20703;-46
2023/03/09 04:47:53;;;;;;;41.10;31.57;;;4.70;99.90;;;;;;5107722;27;20184;-47
2023/03/09 04:50:19;;;;;;;37.93;31.17;;;4.80;99.90;;;;;;5114108;27;20191;-48
2023/03/09 04:52:45;;;;;;;40.03;31.47;;;4.70;99.90;;;;;;5117446;27;20486;-47
2023/03/09 04:55:10;;;;;;;36.90;30.67;;;4.70;99.90;;;;;;5131391;27;20179;-47
2023/03/09 04:57:36;;;;;;;38.20;29.57;;;4.70;99.90;;;;;;5125625;27;20236;-45
2023/03/09 05:00:04;;;;;;;36.20;29.63;;;4.70;99.90;;;;;;5117241;27;20703;-44
2023/03/09 05:02:30;;;;;;;38.88;30.25;;;4.70;99.90;;;;;;5115828;27;20703;-48
2023/03/09 05:04:56;;;;;;;32.38;28.73;;;4.70;99.90;;;;;;5122789;27;20259;-47
2023/03/09 05:07:22;;;;;;;34.70;29.03;;;4.70;99.90;;;;;;5118213;27;20279;-45
2023/03/09 05:09:48;;;;;;;39.33;30.50;;;4.70;99.90;;;;;;5117261;27;20188;-45
2023/03/09 05:12:14;;;;;;;35.67;30.25;;;4.70;99.90;;;;;;5118978;27;20532;-46
2023/03/09 05:14:40;;;;;;;34.37;28.27;;;4.60;99.90;;;;;;5096470;27;20267;-44
2023/03/09 05:17:05;;;;;;;37.50;28.77;;;4.60;99.90;;;;;;5130534;27;20183;-41
2023/03/09 05:19:33;;;;;;;36.63;28.90;;;4.60;99.90;;;;;;5118296;27;20429;-42
2023/03/09 05:21:58;;;;;;;32.60;27.27;;;4.60;99.90;;;;;;5087890;28;20215;-43
2023/03/09 05:24:27;;;;;;;30.67;26.60;;;4.70;99.90;;;;;;5109163;27;20188;-44
2023/03/09 05:26:52;;;;;;;33.13;28.38;;;4.70;99.90;;;;;;5114345;27;20270;-44
2023/03/09 05:29:18;;;;;;;33.47;29.40;;;4.70;99.90;;;;;;5122115;27;20193;-43
2023/03/09 05:31:43;;;;;;;33.57;28.97;;;4.70;99.90;;;;;;5120873;27;20179;-45
2023/03/09 05:34:09;;;;;;;35.97;29.63;;;4.70;99.90;;;;;;5119289;27;20581;-47
2023/03/09 05:36:35;;;;;;;29.70;26.60;;;4.80;99.90;;;;;;5116083;27;20243;-45
2023/03/09 05:39:00;;;;;;;30.80;27.50;;;4.80;99.90;;;;;;5107310;27;20187;-47
2023/03/09 05:41:26;;;;;;;32.03;28.53;;;4.80;99.90;;;;;;5109278;27;20191;-46
2023/03/09 05:43:52;;;;;;;31.57;28.23;;;4.80;99.90;;;;;;5106444;27;20207;-42
2023/03/09 05:46:17;;;;;;;30.83;27.63;;;4.80;99.90;;;;;;5104077;27;20180;-48
2023/03/09 05:48:46;;;;;;;31.67;28.27;;;4.80;99.90;;;;;;5107651;27;20214;-44
2023/03/09 05:51:12;;;;;;;31.63;27.95;;;4.80;99.90;;;;;;5092277;28;20221;-46
2023/03/09 05:53:38;;;;;;;31.83;28.43;;;4.80;99.90;;;;;;5104401;27;20815;-47
2023/03/09 05:56:05;;;;;;;34.47;28.13;;;4.80;99.90;;;;;;5103514;27;20417;-42
2023/03/09 05:58:31;;;;;;;34.33;28.13;;;4.80;99.90;;;;;;5105239;27;20207;-46
2023/03/09 06:00:56;;;;;;;34.50;28.37;;;4.80;99.90;;;;;;5104916;27;21058;-46
2023/03/09 06:03:23;;;;;;;35.43;29.13;;;4.80;99.90;;;;;;5088667;27;20199;-43
2023/03/09 06:05:58;;;;;;;34.45;30.73;;;4.90;99.90;;;;;;5106432;27;20261;-45
2023/03/09 06:08:23;;;;;;;33.75;29.33;;;4.90;99.90;;;;;;5106502;27;20177;-45
2023/03/09 06:10:49;;;;;;;30.47;27.37;;;4.90;99.90;;;;;;5106011;27;20180;-43
2023/03/09 06:13:14;;;;;;;32.27;28.77;;;4.90;99.90;;;;;;5104981;27;20685;-44
2023/03/09 06:15:41;;;;;;;35.10;29.57;;;4.90;99.90;;;;;;5103767;27;20191;-46
2023/03/09 06:18:06;;;;;;;30.45;27.25;;;4.90;99.90;;;;;;5104475;27;20258;-45
2023/03/09 06:20:32;;;;;;;35.03;31.23;;;4.90;99.90;;;;;;5104859;27;20236;-44
2023/03/09 06:22:58;;;;;;;39.60;32.00;;;4.90;99.90;;;;;;5107576;27;20570;-47
2023/03/09 06:25:23;;;;;;;41.70;32.17;;;4.80;99.90;;;;;;5105273;27;20187;-45
2023/03/09 06:27:49;;;;;;;37.60;32.33;;;4.70;99.90;;;;;;5108778;27;20180;-46
2023/03/09 06:30:15;;;;;;;37.03;30.73;;;4.70;99.90;;;;;;5108017;27;20264;-45
2023/03/09 06:32:40;;;;;;;37.70;32.10;;;4.70;99.90;;;;;;5109766;27;20187;-44
2023/03/09 06:35:06;;;;;;;40.63;31.90;;;4.70;99.90;;;;;;5119831;27;20235;-44
2023/03/09 06:37:32;;;;;;;41.50;34.10;;;4.60;99.90;;;;;;5114914;27;20179;-43
2023/03/09 06:39:58;;;;;;;39.97;34.00;;;4.70;99.90;;;;;;5108274;27;20620;-43
2023/03/09 06:42:23;;;;;;;41.58;33.10;;;4.70;99.90;;;;;;5103646;27;20200;-44
2023/03/09 06:44:50;;;;;;;42.43;34.57;;;4.60;99.90;;;;;;5107904;27;20175;-43
2023/03/09 06:47:16;;;;;;;36.72;30.63;;;4.60;99.90;;;;;;5105486;27;20223;-42
2023/03/09 06:49:43;;;;;;;35.47;31.50;;;4.70;99.90;;;;;;5114972;27;20309;-45
2023/03/09 06:52:09;;;;;;;35.42;30.02;;;4.70;99.90;;;;;;5112983;27;20702;-47
2023/03/09 06:54:35;;;;;;;39.87;32.30;;;4.70;99.90;;;;;;5117040;27;20183;-49
2023/03/09 06:57:00;;;;;;;40.60;29.97;;;4.60;99.90;;;;;;5111833;27;20728;-45
2023/03/09 06:59:29;;;;;;;34.87;30.50;;;4.70;99.90;;;;;;5108441;27;20180;-45
2023/03/09 07:01:54;;;;;;;34.60;29.73;;;4.80;99.90;;;;;;5103214;27;20229;-47
2023/03/09 07:04:20;;;;;;;35.50;30.83;;;4.80;99.90;;;;;;5105338;27;20214;-45
2023/03/09 07:06:45;;;;;;;37.57;30.50;;;4.90;99.90;;;;;;5109433;27;20188;-48
2023/03/09 07:09:11;;;;;;;37.50;31.90;;;4.90;99.90;;;;;;5118159;27;20183;-48
2023/03/09 07:11:37;;;;;;;35.93;29.77;;;4.90;99.90;;;;;;5104210;27;20615;-44
2023/03/09 07:14:02;;;;;;;36.07;30.60;;;4.90;99.90;;;;;;5115759;27;20191;-45
2023/03/09 07:16:30;;;;;;;34.27;29.60;;;4.90;99.90;;;;;;5117722;27;20184;-44
2023/03/09 07:18:56;;;;;;;33.90;30.20;;;4.90;99.90;;;;;;5107861;27;20294;-45
2023/03/09 07:21:21;;;;;;;32.75;29.15;;;4.80;99.90;;;;;;5118842;27;20187;-43
2023/03/09 07:23:47;;;;;;;36.57;31.23;;;4.80;99.90;;;;;;5113051;27;20256;-47
2023/03/09 07:26:13;;;;;;;34.70;28.80;;;4.80;99.90;;;;;;5117146;27;20602;-49
2023/03/09 07:28:38;;;;;;;34.87;29.17;;;4.70;99.90;;;;;;5121616;27;20270;-50
2023/03/09 07:31:09;;;;;;;33.43;29.83;;;4.80;99.90;;;;;;5108003;27;20191;-45
2023/03/09 07:33:35;;;;;;;33.35;29.83;;;4.80;99.90;;;;;;5104796;27;20191;-46
2023/03/09 07:36:05;;;;;;;32.40;28.80;;;4.80;99.90;;;;;;5105919;27;20236;-48
2023/03/09 07:38:30;;;;;;;29.70;26.77;;;4.80;99.90;;;;;;5119213;27;20255;-47
2023/03/09 07:41:00;;;;;;;30.00;26.93;;;4.80;99.90;;;;;;5107649;27;20192;-45
2023/03/09 07:43:26;;;;;;;26.92;24.33;;;4.80;99.90;;;;;;5121316;27;21110;-44
2023/03/09 07:45:51;;;;;;;26.97;24.30;;;4.70;99.90;;;;;;5102282;27;20179;-44
2023/03/09 07:48:17;;;;;;;27.53;24.97;;;4.70;99.90;;;;;;5121513;27;20504;-46
2023/03/09 07:50:43;;;;;;;23.80;21.70;;;4.60;99.90;;;;;;5120679;27;20182;-44
2023/03/09 07:53:09;;;;;;;21.38;19.30;;;4.40;99.90;;;;;;5120994;27;20412;-44
2023/03/09 07:55:35;;;;;;;19.70;18.10;;;4.40;99.90;;;;;;5109047;27;20637;-46
2023/03/09 07:58:02;;;;;;;19.47;17.97;;;4.30;99.90;;;;;;5103895;27;20191;-47
2023/03/09 08:00:32;;;;;;;19.25;17.65;;;4.30;99.90;;;;;;5101813;27;20468;-43
2023/03/09 08:02:57;;;;;;;19.05;17.55;;;4.20;99.90;;;;;;5107989;27;20207;-46
2023/03/09 08:05:24;;;;;;;19.00;17.23;;;4.20;99.90;;;;;;5102793;27;20644;-44
2023/03/09 08:07:50;;;;;;;18.80;17.40;;;4.20;99.90;;;;;;5103237;27;20190;-47
2023/03/09 08:10:18;;;;;;;18.90;17.40;;;4.20;99.90;;;;;;5098957;27;20210;-46
2023/03/09 08:12:48;;;;;;;19.80;18.13;;;4.30;99.90;;;;;;5106606;27;20457;-46
2023/03/09 08:15:14;;;;;;;21.02;19.13;;;4.30;99.90;;;;;;5103778;27;20187;-43
2023/03/09 08:17:39;;;;;;;20.13;18.50;;;4.40;99.90;;;;;;5105270;27;20703;-46
2023/03/09 08:20:08;;;;;;;20.83;19.03;;;4.50;99.90;;;;;;5097402;28;20434;-44
2023/03/09 08:22:35;;;;;;;20.65;19.15;;;4.40;99.90;;;;;;5100108;28;20224;-50
2023/03/09 08:25:01;;;;;;;20.40;18.50;;;4.40;99.90;;;;;;5108739;28;20599;-42
2023/03/09 08:27:27;;;;;;;19.13;17.53;;;4.40;99.90;;;;;;5109870;28;20266;-47
2023/03/09 08:29:52;;;;;;;21.80;19.90;;;4.30;99.90;;;;;;5100601;28;20179;-44
2023/03/09 08:32:18;;;;;;;21.63;19.80;;;4.20;99.90;;;;;;5111727;28;20229;-42
2023/03/09 08:34:45;;;;;;;20.80;19.10;;;4.20;99.90;;;;;;5103743;28;21035;-45
2023/03/09 08:37:10;;;;;;;20.55;18.80;;;4.20;99.90;;;;;;5106381;28;20416;-42
2023/03/09 08:39:36;;;;;;;21.30;19.50;;;4.20;99.90;;;;;;5105537;28;20191;-44
2023/03/09 08:42:01;;;;;;;20.20;18.60;;;4.30;99.90;;;;;;5103128;28;20199;-43
2023/03/09 08:44:27;;;;;;;20.50;18.80;;;4.20;99.90;;;;;;5101989;28;20553;-44
2023/03/09 08:46:52;;;;;;;20.47;18.67;;;4.30;99.90;;;;;;5102509;28;20188;-45
2023/03/09 08:49:18;;;;;;;20.57;18.77;;;4.20;99.90;;;;;;5101167;28;21030;-43
2023/03/09 08:51:44;;;;;;;20.40;18.70;;;4.20;99.90;;;;;;5103901;28;20184;-46
2023/03/09 08:54:10;;;;;;;21.27;19.45;;;4.20;99.90;;;;;;5102532;28;20815;-49
2023/03/09 08:56:36;;;;;;;20.93;19.23;;;4.20;99.90;;;;;;5102955;28;20578;-42
2023/03/09 08:59:01;;;;;;;19.17;17.63;;;4.30;99.90;;;;;;5102227;28;20198;-45
2023/03/09 09:01:27;;;;;;;19.00;17.40;;;4.30;99.90;;;;;;5102345;28;20180;-45
2023/03/09 09:03:53;;;;;;;17.93;16.53;;;4.20;99.90;;;;;;5110528;28;20203;-45
2023/03/09 09:06:19;;;;;;;17.77;16.38;;;4.20;99.90;;;;;;5119101;28;20187;-50
2023/03/09 09:08:44;;;;;;;18.20;16.70;;;4.20;99.90;;;;;;5118104;28;20742;-43
2023/03/09 09:11:13;;;;;;;18.20;16.70;;;4.00;99.90;;;;;;5116432;28;20180;-47
2023/03/09 09:13:39;;;;;;;18.30;16.70;;;4.10;99.90;;;;;;5113425;28;20184;-42
2023/03/09 09:16:06;;;;;;;18.47;16.77;;;4.10;99.90;;;;;;5115587;28;20187;-44
2023/03/09 09:18:32;;;;;;;18.42;16.75;;;4.20;99.90;;;;;;5109343;28;20187;-46
2023/03/09 09:20:59;;;;;;;17.38;15.68;;;4.30;99.90;;;;;;5112777;28;20187;-46
2023/03/09 09:23:24;;;;;;;18.38;16.80;;;4.30;99.90;;;;;;5117576;28;20230;-48
2023/03/09 09:25:55;;;;;;;18.40;16.80;;;4.30;99.90;;;;;;5098970;28;20247;-44
2023/03/09 09:28:21;;;;;;;17.80;16.25;;;4.40;99.90;;;;;;5117699;28;20172;-44
2023/03/09 09:30:55;;;;;;;17.90;16.00;;;4.40;99.90;;;;;;5120032;27;20186;-49
2023/03/09 09:33:21;;;;;;;17.42;15.73;;;4.50;99.90;;;;;;5118946;27;20488;-42
2023/03/09 09:36:01;;;;;;;17.20;15.67;;;4.50;99.90;;;;;;5122862;27;20183;-43
2023/03/09 09:38:28;;;;;;;17.02;15.60;;;4.60;99.90;;;;;;5123070;27;20464;-46
2023/03/09 09:40:56;;;;;;;17.23;15.70;;;4.80;99.90;;;;;;5122267;27;20628;-43
2023/03/09 09:43:23;;;;;;;17.23;15.50;;;4.90;99.90;;;;;;5119527;27;20210;-44
2023/03/09 09:45:52;;;;;;;16.83;15.32;;;4.90;99.90;;;;;;5122744;27;20167;-46
2023/03/09 09:48:20;;;;;;;16.40;14.90;;;5.00;99.90;;;;;;5122556;27;20224;-45
2023/03/09 09:51:14;;;;;;;17.30;15.70;;;5.20;99.90;;;;;;5122571;27;20183;-44
2023/03/09 09:53:42;;;;;;;16.60;15.10;;;5.40;99.90;;;;;;5122737;27;20194;-48
2023/03/09 09:56:15;;;;;;;16.30;14.90;;;5.30;99.90;;;;;;5122634;27;20191;-45
2023/03/09 09:58:46;;;;;;;16.70;15.30;;;5.30;99.90;;;;;;5117336;27;20186;-47
2023/03/09 10:01:27;;;;;;;17.48;15.77;;;5.40;99.90;;;;;;5115168;27;20376;-47
2023/03/09 10:03:58;;;;;;;15.65;14.45;;;5.30;99.90;;;;;;5098788;27;20701;-43
2023/03/09 10:06:25;;;;;;;16.63;15.23;;;5.30;99.90;;;;;;5117933;27;20556;-44
2023/03/09 10:08:55;;;;;;;16.35;15.05;;;5.30;99.90;;;;;;5122389;27;20867;-44
2023/03/09 10:11:28;;;;;;;18.38;16.70;;;5.30;99.90;;;;;;5122237;27;20633;-46
2023/03/09 10:14:11;;;;;;;18.63;17.08;;;5.30;99.90;;;;;;5117697;27;20241;-46
2023/03/09 10:16:43;;;;;;;18.42;16.92;;;5.40;99.90;;;;;;5115829;27;20668;-45
2023/03/09 10:19:15;;;;;;;17.63;16.13;;;5.40;99.90;;;;;;5108819;27;20194;-43
2023/03/09 10:21:46;;;;;;;18.35;16.70;;;5.40;99.90;;;;;;5122198;27;20197;-43
2023/03/09 10:24:39;;;;;;;17.77;16.33;;;5.40;99.90;;;;;;5121726;27;20206;-44
2023/03/09 10:27:18;;;;;;;17.73;16.25;;;5.50;99.90;;;;;;5122264;27;20226;-45
2023/03/09 10:30:14;;;;;;;18.73;17.23;;;5.60;99.90;;;;;;5121978;27;20183;-43
2023/03/09 10:32:39;;;;;;;18.98;17.25;;;5.70;99.90;;;;;;5116072;27;20179;-46
2023/03/09 10:35:28;;;;;;;19.63;18.10;;;5.80;99.90;;;;;;5118322;27;20664;-46
2023/03/09 10:37:54;;;;;;;18.02;16.63;;;5.90;99.90;;;;;;5076218;27;20291;-45
2023/03/09 10:40:24;;;;;;;18.73;17.30;;;5.90;99.90;;;;;;5115678;27;20189;-44
2023/03/09 10:42:51;;;;;;;19.00;17.40;;;6.00;99.90;;;;;;5109687;27;20689;-48
2023/03/09 10:45:27;;;;;;;18.50;17.00;;;6.10;99.90;;;;;;5121778;27;20180;-43
2023/03/09 10:47:56;;;;;;;17.87;16.43;;;6.20;99.90;;;;;;5121677;27;20416;-43
2023/03/09 10:50:25;;;;;;;18.80;17.20;;;6.40;99.90;;;;;;5121876;27;20427;-45
2023/03/09 10:52:51;;;;;;;19.73;18.13;;;6.60;99.90;;;;;;5121442;27;20452;-45
2023/03/09 10:55:27;;;;;;;18.30;16.87;;;6.80;99.90;;;;;;5121213;27;20945;-44
2023/03/09 10:58:16;;;;;;;18.40;17.00;;;6.90;99.90;;;;;;5121500;27;20524;-44
2023/03/09 11:00:49;;;;;;;18.77;17.27;;;6.80;99.90;;;;;;5107581;27;20448;-43
2023/03/09 11:03:24;;;;;;;18.97;17.47;;;6.80;99.90;;;;;;5120734;27;20462;-44
2023/03/09 11:05:50;;;;;;;18.13;16.70;;;6.70;99.90;;;;;;5112335;27;20785;-46
2023/03/09 11:08:25;;;;;;;18.70;17.13;;;6.70;99.90;;;;;;5121281;27;20513;-48
2023/03/09 11:11:02;;;;;;;18.17;16.70;;;6.60;99.90;;;;;;5102737;27;20249;-47
2023/03/09 11:13:27;;;;;;;19.17;17.57;;;6.50;99.90;;;;;;5089830;27;20901;-44
2023/03/09 11:16:27;;;;;;;19.17;17.57;;;6.40;99.90;;;;;;5120772;27;20454;-46
2023/03/09 11:19:06;;;;;;;18.20;16.80;;;6.40;99.90;;;;;;5090566;28;20248;-46
2023/03/09 11:21:32;;;;;;;19.03;17.43;;;6.40;99.90;;;;;;5120561;27;20284;-44
2023/03/09 11:24:01;;;;;;;18.90;17.33;;;6.50;99.90;;;;;;5117850;27;20520;-44
2023/03/09 11:27:00;;;;;;;18.53;17.13;;;6.60;99.90;;;;;;5120504;27;20714;-45
2023/03/09 11:29:41;;;;;;;19.48;17.88;;;6.60;99.90;;;;;;5093017;27;20433;-43
2023/03/09 11:32:10;;;;;;;18.98;17.38;;;6.50;99.90;;;;;;5120561;27;20188;-48
2023/03/09 11:34:39;;;;;;;18.80;17.20;;;6.20;99.90;;;;;;5120834;27;20202;-46
2023/03/09 11:37:18;;;;;;;19.60;18.00;;;6.20;99.90;;;;;;5120502;27;20601;-44
2023/03/09 11:39:49;;;;;;;20.23;18.53;;;6.20;99.90;;;;;;5116911;27;20278;-42
2023/03/09 11:42:23;;;;;;;20.50;18.80;;;6.20;99.90;;;;;;5116973;27;20436;-45
2023/03/09 11:44:50;;;;;;;19.93;18.33;;;6.30;99.90;;;;;;5120788;27;20979;-47
2023/03/09 11:47:28;;;;;;;21.00;19.20;;;6.30;99.90;;;;;;5120918;27;20847;-45
2023/03/09 11:49:56;;;;;;;20.83;19.10;;;6.30;99.90;;;;;;5120404;27;20529;-46
2023/03/09 11:52:34;;;;;;;19.48;17.88;;;6.20;99.90;;;;;;5119937;27;20184;-43
2023/03/09 11:55:06;;;;;;;20.00;18.30;;;6.20;99.90;;;;;;5120251;27;20233;-44
2023/03/09 11:57:35;;;;;;;20.33;18.73;;;6.20;99.90;;;;;;5120519;27;20179;-47
2023/03/09 12:00:06;;;;;;;20.52;18.83;;;6.10;99.90;;;;;;5109544;27;20187;-45
2023/03/09 12:02:44;;;;;;;20.80;19.10;;;6.10;99.90;;;;;;5110071;27;20214;-47
2023/03/09 12:05:13;;;;;;;21.00;19.23;;;6.20;99.90;;;;;;5109176;27;20175;-43
2023/03/09 12:07:46;;;;;;;21.17;19.43;;;6.30;99.90;;;;;;5119320;27;20657;-43
2023/03/09 12:10:27;;;;;;;22.20;20.33;;;6.40;99.90;;;;;;5108817;27;20474;-50
2023/03/09 12:13:03;;;;;;;21.00;19.35;;;6.30;99.90;;;;;;5120014;27;20427;-45
2023/03/09 12:15:47;;;;;;;21.80;20.00;;;6.30;99.90;;;;;;5120022;27;20186;-42
2023/03/09 12:18:23;;;;;;;20.08;18.50;;;6.30;99.90;;;;;;5102608;27;20178;-44
2023/03/09 12:20:55;;;;;;;20.48;18.80;;;6.30;99.90;;;;;;5105771;27;20190;-46
2023/03/09 12:23:36;;;;;;;20.88;19.17;;;6.20;99.90;;;;;;5100469;28;20724;-44
2023/03/09 12:26:18;;;;;;;20.30;18.60;;;6.30;99.90;;;;;;5102111;28;20182;-45
2023/03/09 12:28:54;;;;;;;20.13;18.55;;;6.20;99.90;;;;;;5101638;28;20179;-44
2023/03/09 12:31:35;;;;;;;20.07;18.23;;;6.30;99.90;;;;;;5103475;28;20186;-46
2023/03/09 12:34:23;;;;;;;20.60;19.00;;;6.30;99.90;;;;;;5103630;28;20439;-48
2023/03/09 12:36:48;;;;;;;21.58;19.77;;;6.30;99.90;;;;;;5103396;28;20429;-43
2023/03/09 12:39:26;;;;;;;22.27;20.37;;;6.40;99.90;;;;;;5084273;28;20193;-45
2023/03/09 12:42:22;;;;;;;21.43;19.83;;;6.40;99.90;;;;;;5120116;28;20217;-47
2023/03/09 12:44:50;;;;;;;21.35;19.65;;;6.40;99.90;;;;;;5114254;28;20815;-46